sensor_id;sensor_type;location;lat;lon;timestamp;P1;durP1;ratioP1;P2;durP2;ratioP2
79687;SDS011;69155;49.464;2.108;2024-02-15T06:04:42;10.60;;;4.10;;
79687;SDS011;69155;49.464;2.108;2024-02-15T06:10:30;8.68;;;4.57;;
79687;SDS011;69155;49.464;2.108;2024-02-15T06:12:56;8.45;;;3.88;;
79687;SDS011;69155;49.464;2.108;2024-02-15T06:15:28;9.15;;;3.85;;
79687;SDS011;69155;49.464;2.108;2024-02-15T06:17:53;10.98;;;4.55;;
79687;SDS011;69155;49.464;2.108;2024-02-15T06:20:18;9.30;;;3.87;;
79687;SDS011;69155;49.464;2.108;2024-02-15T06:22:45;7.88;;;4.50;;
79687;SDS011;69155;49.464;2.108;2024-02-15T06:25:10;10.40;;;4.45;;
79687;SDS011;69155;49.464;2.108;2024-02-15T06:27:38;10.53;;;4.97;;
79687;SDS011;69155;49.464;2.108;2024-02-15T06:30:09;9.85;;;3.47;;
79687;SDS011;69155;49.464;2.108;2024-02-15T06:32:56;7.95;;;3.85;;
79687;SDS011;69155;49.464;2.108;2024-02-15T06:35:40;8.75;;;4.32;;
79687;SDS011;69155;49.464;2.108;2024-02-15T06:38:24;9.75;;;4.32;;
79687;SDS011;69155;49.464;2.108;2024-02-15T06:41:08;10.05;;;3.97;;
79687;SDS011;69155;49.464;2.108;2024-02-15T06:43:34;9.13;;;4.13;;
79687;SDS011;69155;49.464;2.108;2024-02-15T06:46:00;13.73;;;4.50;;
79687;SDS011;69155;49.464;2.108;2024-02-15T06:48:25;12.02;;;4.68;;
79687;SDS011;69155;49.464;2.108;2024-02-15T06:50:51;12.50;;;4.73;;
79687;SDS011;69155;49.464;2.108;2024-02-15T06:53:16;7.03;;;4.03;;
79687;SDS011;69155;49.464;2.108;2024-02-15T06:55:42;10.90;;;4.72;;
79687;SDS011;69155;49.464;2.108;2024-02-15T06:58:08;10.13;;;4.23;;
79687;SDS011;69155;49.464;2.108;2024-02-15T07:00:33;6.13;;;4.17;;
79687;SDS011;69155;49.464;2.108;2024-02-15T07:03:01;9.55;;;5.07;;
79687;SDS011;69155;49.464;2.108;2024-02-15T07:05:26;7.57;;;4.73;;
79687;SDS011;69155;49.464;2.108;2024-02-15T07:07:53;6.65;;;4.03;;
79687;SDS011;69155;49.464;2.108;2024-02-15T07:10:19;8.45;;;4.28;;
79687;SDS011;69155;49.464;2.108;2024-02-15T07:12:44;11.90;;;4.63;;
79687;SDS011;69155;49.464;2.108;2024-02-15T07:15:10;9.63;;;4.90;;
79687;SDS011;69155;49.464;2.108;2024-02-15T07:17:35;10.13;;;4.07;;
79687;SDS011;69155;49.464;2.108;2024-02-15T07:20:04;10.63;;;4.60;;
79687;SDS011;69155;49.464;2.108;2024-02-15T07:22:32;12.18;;;5.05;;
79687;SDS011;69155;49.464;2.108;2024-02-15T07:25:03;12.13;;;4.72;;
79687;SDS011;69155;49.464;2.108;2024-02-15T07:27:29;9.40;;;4.45;;
79687;SDS011;69155;49.464;2.108;2024-02-15T07:30:00;7.68;;;4.25;;
79687;SDS011;69155;49.464;2.108;2024-02-15T07:32:27;8.83;;;4.30;;
79687;SDS011;69155;49.464;2.108;2024-02-15T07:34:53;10.90;;;4.40;;
79687;SDS011;69155;49.464;2.108;2024-02-15T07:37:18;12.57;;;4.37;;
79687;SDS011;69155;49.464;2.108;2024-02-15T07:39:43;5.60;;;3.90;;
79687;SDS011;69155;49.464;2.108;2024-02-15T07:42:29;9.73;;;4.33;;
79687;SDS011;69155;49.464;2.108;2024-02-15T07:45:04;6.75;;;4.10;;
79687;SDS011;69155;49.464;2.108;2024-02-15T07:47:32;9.23;;;3.65;;
79687;SDS011;69155;49.464;2.108;2024-02-15T07:49:58;5.30;;;3.55;;
79687;SDS011;69155;49.464;2.108;2024-02-15T07:55:19;11.93;;;6.85;;
79687;SDS011;69155;49.464;2.108;2024-02-15T07:57:47;7.93;;;4.30;;
79687;SDS011;69155;49.464;2.108;2024-02-15T08:00:31;13.98;;;4.70;;
79687;SDS011;69155;49.464;2.108;2024-02-15T08:02:58;4.72;;;3.25;;
79687;SDS011;69155;49.464;2.108;2024-02-15T08:05:30;7.53;;;4.03;;
79687;SDS011;69155;49.464;2.108;2024-02-15T08:07:58;6.60;;;3.33;;
79687;SDS011;69155;49.464;2.108;2024-02-15T08:10:45;10.68;;;3.60;;
79687;SDS011;69155;49.464;2.108;2024-02-15T08:16:53;8.75;;;3.20;;
79687;SDS011;69155;49.464;2.108;2024-02-15T08:19:18;8.93;;;4.87;;
79687;SDS011;69155;49.464;2.108;2024-02-15T08:21:43;7.60;;;3.17;;
79687;SDS011;69155;49.464;2.108;2024-02-15T08:24:11;7.15;;;3.10;;
79687;SDS011;69155;49.464;2.108;2024-02-15T08:26:37;6.43;;;3.50;;
79687;SDS011;69155;49.464;2.108;2024-02-15T08:29:12;13.60;;;5.88;;
79687;SDS011;69155;49.464;2.108;2024-02-15T08:31:40;8.82;;;4.78;;
79687;SDS011;69155;49.464;2.108;2024-02-15T08:34:06;11.23;;;4.95;;
79687;SDS011;69155;49.464;2.108;2024-02-15T08:36:34;5.95;;;3.35;;
79687;SDS011;69155;49.464;2.108;2024-02-15T08:39:00;14.33;;;3.60;;
79687;SDS011;69155;49.464;2.108;2024-02-15T08:41:26;7.53;;;4.35;;
79687;SDS011;69155;49.464;2.108;2024-02-15T08:43:52;7.38;;;3.47;;
79687;SDS011;69155;49.464;2.108;2024-02-15T08:46:17;7.38;;;4.20;;
79687;SDS011;69155;49.464;2.108;2024-02-15T08:48:42;6.90;;;4.03;;
79687;SDS011;69155;49.464;2.108;2024-02-15T08:51:09;9.80;;;3.80;;
79687;SDS011;69155;49.464;2.108;2024-02-15T08:53:40;5.77;;;2.87;;
79687;SDS011;69155;49.464;2.108;2024-02-15T08:56:08;6.70;;;3.50;;
79687;SDS011;69155;49.464;2.108;2024-02-15T08:58:35;11.75;;;3.50;;
79687;SDS011;69155;49.464;2.108;2024-02-15T09:01:00;9.33;;;4.10;;
79687;SDS011;69155;49.464;2.108;2024-02-15T09:03:25;6.97;;;3.37;;
79687;SDS011;69155;49.464;2.108;2024-02-15T09:05:51;10.77;;;3.10;;
79687;SDS011;69155;49.464;2.108;2024-02-15T09:08:16;8.13;;;3.55;;
79687;SDS011;69155;49.464;2.108;2024-02-15T09:10:45;12.68;;;3.53;;
79687;SDS011;69155;49.464;2.108;2024-02-15T09:13:11;6.22;;;3.30;;
79687;SDS011;69155;49.464;2.108;2024-02-15T09:15:36;8.63;;;3.20;;
79687;SDS011;69155;49.464;2.108;2024-02-15T09:18:01;8.63;;;3.03;;
79687;SDS011;69155;49.464;2.108;2024-02-15T09:20:26;6.03;;;3.40;;
79687;SDS011;69155;49.464;2.108;2024-02-15T09:22:53;7.90;;;3.20;;
79687;SDS011;69155;49.464;2.108;2024-02-15T09:25:22;10.07;;;3.42;;
79687;SDS011;69155;49.464;2.108;2024-02-15T09:27:51;4.80;;;2.85;;
79687;SDS011;69155;49.464;2.108;2024-02-15T09:30:18;7.55;;;3.72;;
79687;SDS011;69155;49.464;2.108;2024-02-15T09:32:46;6.83;;;3.10;;
79687;SDS011;69155;49.464;2.108;2024-02-15T09:35:12;7.03;;;3.50;;
79687;SDS011;69155;49.464;2.108;2024-02-15T09:37:38;8.60;;;3.58;;
79687;SDS011;69155;49.464;2.108;2024-02-15T09:40:09;10.35;;;3.70;;
79687;SDS011;69155;49.464;2.108;2024-02-15T09:42:35;5.65;;;3.78;;
79687;SDS011;69155;49.464;2.108;2024-02-15T09:45:01;6.57;;;2.72;;
79687;SDS011;69155;49.464;2.108;2024-02-15T09:47:28;8.52;;;3.25;;
79687;SDS011;69155;49.464;2.108;2024-02-15T09:49:56;7.90;;;3.05;;
79687;SDS011;69155;49.464;2.108;2024-02-15T09:52:27;7.30;;;2.72;;
79687;SDS011;69155;49.464;2.108;2024-02-15T09:54:56;7.70;;;3.42;;
79687;SDS011;69155;49.464;2.108;2024-02-15T09:57:22;6.60;;;2.77;;
79687;SDS011;69155;49.464;2.108;2024-02-15T09:59:47;6.27;;;3.37;;
79687;SDS011;69155;49.464;2.108;2024-02-15T10:02:12;8.73;;;3.22;;
79687;SDS011;69155;49.464;2.108;2024-02-15T10:04:41;6.13;;;3.08;;
79687;SDS011;69155;49.464;2.108;2024-02-15T10:07:07;5.18;;;3.17;;
79687;SDS011;69155;49.464;2.108;2024-02-15T10:09:33;10.60;;;2.90;;
79687;SDS011;69155;49.464;2.108;2024-02-15T10:12:01;4.40;;;2.65;;
79687;SDS011;69155;49.464;2.108;2024-02-15T10:14:27;4.37;;;2.40;;
79687;SDS011;69155;49.464;2.108;2024-02-15T10:16:56;6.90;;;2.65;;
79687;SDS011;69155;49.464;2.108;2024-02-15T10:19:24;7.43;;;3.45;;
79687;SDS011;69155;49.464;2.108;2024-02-15T10:21:53;10.63;;;3.72;;
79687;SDS011;69155;49.464;2.108;2024-02-15T10:24:22;8.93;;;3.03;;
79687;SDS011;69155;49.464;2.108;2024-02-15T10:26:50;9.10;;;2.58;;
79687;SDS011;69155;49.464;2.108;2024-02-15T10:29:16;7.65;;;2.90;;
79687;SDS011;69155;49.464;2.108;2024-02-15T10:31:55;6.90;;;3.25;;
79687;SDS011;69155;49.464;2.108;2024-02-15T10:34:21;9.75;;;2.95;;
79687;SDS011;69155;49.464;2.108;2024-02-15T10:36:48;9.93;;;2.78;;
79687;SDS011;69155;49.464;2.108;2024-02-15T10:39:14;8.43;;;2.60;;
79687;SDS011;69155;49.464;2.108;2024-02-15T10:41:45;4.80;;;2.63;;
79687;SDS011;69155;49.464;2.108;2024-02-15T10:44:18;4.97;;;2.45;;
79687;SDS011;69155;49.464;2.108;2024-02-15T10:46:47;7.03;;;2.50;;
79687;SDS011;69155;49.464;2.108;2024-02-15T10:49:16;7.40;;;2.80;;
79687;SDS011;69155;49.464;2.108;2024-02-15T10:51:43;6.22;;;3.25;;
79687;SDS011;69155;49.464;2.108;2024-02-15T10:54:08;7.22;;;2.70;;
79687;SDS011;69155;49.464;2.108;2024-02-15T10:56:37;5.88;;;2.35;;
79687;SDS011;69155;49.464;2.108;2024-02-15T10:59:12;10.30;;;3.05;;
79687;SDS011;69155;49.464;2.108;2024-02-15T11:01:41;7.10;;;2.92;;
79687;SDS011;69155;49.464;2.108;2024-02-15T11:04:07;3.78;;;2.90;;
79687;SDS011;69155;49.464;2.108;2024-02-15T11:06:34;4.65;;;2.45;;
79687;SDS011;69155;49.464;2.108;2024-02-15T11:09:00;6.68;;;2.53;;
79687;SDS011;69155;49.464;2.108;2024-02-15T11:11:26;8.45;;;2.63;;
79687;SDS011;69155;49.464;2.108;2024-02-15T11:14:22;14.68;;;3.20;;
79687;SDS011;69155;49.464;2.108;2024-02-15T11:16:41;4.45;;;2.28;;
79687;SDS011;69155;49.464;2.108;2024-02-15T11:19:06;5.90;;;2.90;;
79687;SDS011;69155;49.464;2.108;2024-02-15T11:22:14;4.70;;;2.60;;
79687;SDS011;69155;49.464;2.108;2024-02-15T11:24:28;8.40;;;2.67;;
79687;SDS011;69155;49.464;2.108;2024-02-15T11:26:57;3.97;;;2.60;;
79687;SDS011;69155;49.464;2.108;2024-02-15T11:32:18;5.57;;;2.40;;
79687;SDS011;69155;49.464;2.108;2024-02-15T11:40:11;7.95;;;3.28;;
79687;SDS011;69155;49.464;2.108;2024-02-15T11:42:38;6.82;;;3.10;;
79687;SDS011;69155;49.464;2.108;2024-02-15T11:45:05;6.00;;;3.10;;
79687;SDS011;69155;49.464;2.108;2024-02-15T11:47:32;4.20;;;2.47;;
79687;SDS011;69155;49.464;2.108;2024-02-15T11:49:59;8.10;;;2.50;;
79687;SDS011;69155;49.464;2.108;2024-02-15T11:52:24;7.40;;;2.95;;
79687;SDS011;69155;49.464;2.108;2024-02-15T11:54:51;6.78;;;2.58;;
79687;SDS011;69155;49.464;2.108;2024-02-15T11:57:17;5.47;;;2.70;;
79687;SDS011;69155;49.464;2.108;2024-02-15T11:59:51;6.95;;;2.35;;
79687;SDS011;69155;49.464;2.108;2024-02-15T12:02:39;5.07;;;2.85;;
79687;SDS011;69155;49.464;2.108;2024-02-15T12:05:30;6.63;;;2.85;;
79687;SDS011;69155;49.464;2.108;2024-02-15T12:08:14;4.05;;;2.70;;
79687;SDS011;69155;49.464;2.108;2024-02-15T12:11:01;9.10;;;2.65;;
79687;SDS011;69155;49.464;2.108;2024-02-15T12:13:51;4.68;;;2.60;;
79687;SDS011;69155;49.464;2.108;2024-02-15T12:16:35;5.35;;;2.67;;
79687;SDS011;69155;49.464;2.108;2024-02-15T12:19:19;5.20;;;2.40;;
79687;SDS011;69155;49.464;2.108;2024-02-15T12:21:46;8.90;;;2.97;;
79687;SDS011;69155;49.464;2.108;2024-02-15T12:24:12;11.85;;;4.10;;
79687;SDS011;69155;49.464;2.108;2024-02-15T12:26:38;3.85;;;2.33;;
79687;SDS011;69155;49.464;2.108;2024-02-15T12:29:06;3.63;;;2.40;;
79687;SDS011;69155;49.464;2.108;2024-02-15T12:31:36;8.25;;;3.53;;
79687;SDS011;69155;49.464;2.108;2024-02-15T12:34:04;4.25;;;2.80;;
79687;SDS011;69155;49.464;2.108;2024-02-15T12:36:42;6.93;;;2.40;;
79687;SDS011;69155;49.464;2.108;2024-02-15T12:39:27;4.75;;;2.58;;
79687;SDS011;69155;49.464;2.108;2024-02-15T12:41:59;7.82;;;2.45;;
79687;SDS011;69155;49.464;2.108;2024-02-15T12:44:25;7.20;;;2.58;;
79687;SDS011;69155;49.464;2.108;2024-02-15T12:47:00;4.43;;;2.70;;
79687;SDS011;69155;49.464;2.108;2024-02-15T12:49:34;9.32;;;3.15;;
79687;SDS011;69155;49.464;2.108;2024-02-15T12:54:46;5.70;;;3.33;;
79687;SDS011;69155;49.464;2.108;2024-02-15T12:57:31;5.45;;;2.63;;
79687;SDS011;69155;49.464;2.108;2024-02-15T13:00:02;6.38;;;2.40;;
79687;SDS011;69155;49.464;2.108;2024-02-15T13:05:13;4.85;;;2.65;;
79687;SDS011;69155;49.464;2.108;2024-02-15T13:07:52;6.88;;;2.47;;
79687;SDS011;69155;49.464;2.108;2024-02-15T13:10:29;5.63;;;2.60;;
79687;SDS011;69155;49.464;2.108;2024-02-15T13:12:55;5.18;;;2.70;;
79687;SDS011;69155;49.464;2.108;2024-02-15T13:15:44;5.93;;;3.13;;
79687;SDS011;69155;49.464;2.108;2024-02-15T13:21:15;4.32;;;2.58;;
79687;SDS011;69155;49.464;2.108;2024-02-15T13:23:40;6.05;;;2.75;;
79687;SDS011;69155;49.464;2.108;2024-02-15T13:26:05;6.20;;;2.67;;
79687;SDS011;69155;49.464;2.108;2024-02-15T13:28:33;4.90;;;2.20;;
79687;SDS011;69155;49.464;2.108;2024-02-15T13:31:01;4.80;;;2.50;;
79687;SDS011;69155;49.464;2.108;2024-02-15T13:33:27;8.65;;;2.92;;
79687;SDS011;69155;49.464;2.108;2024-02-15T13:36:04;3.95;;;2.63;;
79687;SDS011;69155;49.464;2.108;2024-02-15T13:38:38;6.18;;;2.70;;
79687;SDS011;69155;49.464;2.108;2024-02-15T13:41:27;4.57;;;2.10;;
79687;SDS011;69155;49.464;2.108;2024-02-15T13:43:52;7.97;;;2.70;;
79687;SDS011;69155;49.464;2.108;2024-02-15T13:46:18;6.22;;;2.78;;
79687;SDS011;69155;49.464;2.108;2024-02-15T13:48:45;6.35;;;2.50;;
79687;SDS011;69155;49.464;2.108;2024-02-15T13:51:10;4.53;;;2.78;;
79687;SDS011;69155;49.464;2.108;2024-02-15T13:53:39;9.90;;;3.40;;
79687;SDS011;69155;49.464;2.108;2024-02-15T13:56:12;7.35;;;2.53;;
79687;SDS011;69155;49.464;2.108;2024-02-15T13:58:37;7.82;;;2.22;;
79687;SDS011;69155;49.464;2.108;2024-02-15T14:01:03;3.13;;;1.87;;
79687;SDS011;69155;49.464;2.108;2024-02-15T14:03:29;5.85;;;2.53;;
79687;SDS011;69155;49.464;2.108;2024-02-15T14:05:55;3.50;;;2.22;;
79687;SDS011;69155;49.464;2.108;2024-02-15T14:08:20;5.40;;;2.40;;
79687;SDS011;69155;49.464;2.108;2024-02-15T14:11:08;6.85;;;2.60;;
79687;SDS011;69155;49.464;2.108;2024-02-15T14:14:06;3.40;;;2.00;;
79687;SDS011;69155;49.464;2.108;2024-02-15T14:16:31;3.85;;;2.03;;
79687;SDS011;69155;49.464;2.108;2024-02-15T14:19:02;7.20;;;2.75;;
79687;SDS011;69155;49.464;2.108;2024-02-15T14:21:29;6.00;;;2.80;;
79687;SDS011;69155;49.464;2.108;2024-02-15T14:24:05;4.30;;;2.95;;
79687;SDS011;69155;49.464;2.108;2024-02-15T14:26:36;5.10;;;2.40;;
79687;SDS011;69155;49.464;2.108;2024-02-15T14:35:04;4.85;;;2.40;;
79687;SDS011;69155;49.464;2.108;2024-02-15T14:40:50;6.97;;;2.47;;
79687;SDS011;69155;49.464;2.108;2024-02-15T14:43:25;4.88;;;2.28;;
79687;SDS011;69155;49.464;2.108;2024-02-15T15:05:38;4.47;;;2.42;;
79687;SDS011;69155;49.464;2.108;2024-02-15T15:11:35;3.00;;;2.08;;
79687;SDS011;69155;49.464;2.108;2024-02-15T15:17:05;5.13;;;2.80;;
79687;SDS011;69155;49.464;2.108;2024-02-15T15:29:03;5.53;;;2.35;;
79687;SDS011;69155;49.464;2.108;2024-02-15T15:47:26;4.05;;;1.83;;
79687;SDS011;69155;49.464;2.108;2024-02-15T16:01:02;4.50;;;2.10;;
79687;SDS011;69155;49.464;2.108;2024-02-15T16:21:40;9.50;;;3.08;;
79687;SDS011;69155;49.464;2.108;2024-02-15T16:30:58;8.80;;;2.67;;
79687;SDS011;69155;49.464;2.108;2024-02-15T16:33:23;5.47;;;2.77;;
79687;SDS011;69155;49.464;2.108;2024-02-15T16:35:49;3.80;;;2.33;;
79687;SDS011;69155;49.464;2.108;2024-02-15T16:38:14;3.90;;;2.00;;
79687;SDS011;69155;49.464;2.108;2024-02-15T16:40:41;7.43;;;2.60;;
79687;SDS011;69155;49.464;2.108;2024-02-15T16:43:06;3.83;;;2.43;;
79687;SDS011;69155;49.464;2.108;2024-02-15T16:45:32;4.57;;;2.38;;
79687;SDS011;69155;49.464;2.108;2024-02-15T16:47:58;5.85;;;2.90;;
79687;SDS011;69155;49.464;2.108;2024-02-15T16:50:25;5.97;;;2.53;;
79687;SDS011;69155;49.464;2.108;2024-02-15T16:52:51;6.70;;;2.90;;
79687;SDS011;69155;49.464;2.108;2024-02-15T16:55:16;7.00;;;3.00;;
79687;SDS011;69155;49.464;2.108;2024-02-15T16:57:46;11.27;;;6.60;;
79687;SDS011;69155;49.464;2.108;2024-02-15T17:00:11;13.43;;;7.33;;
79687;SDS011;69155;49.464;2.108;2024-02-15T17:02:41;12.48;;;6.22;;
79687;SDS011;69155;49.464;2.108;2024-02-15T17:05:06;9.25;;;5.20;;
79687;SDS011;69155;49.464;2.108;2024-02-15T17:07:32;8.10;;;3.90;;
79687;SDS011;69155;49.464;2.108;2024-02-15T17:09:57;8.55;;;3.95;;
79687;SDS011;69155;49.464;2.108;2024-02-15T17:12:23;6.13;;;4.43;;
79687;SDS011;69155;49.464;2.108;2024-02-15T17:14:48;6.20;;;3.65;;
79687;SDS011;69155;49.464;2.108;2024-02-15T17:17:14;11.57;;;6.20;;
79687;SDS011;69155;49.464;2.108;2024-02-15T17:19:39;9.93;;;5.20;;
79687;SDS011;69155;49.464;2.108;2024-02-15T17:22:05;14.68;;;5.50;;
79687;SDS011;69155;49.464;2.108;2024-02-15T17:24:31;11.27;;;5.20;;
79687;SDS011;69155;49.464;2.108;2024-02-15T17:26:58;8.02;;;3.88;;
79687;SDS011;69155;49.464;2.108;2024-02-15T17:29:23;5.93;;;3.35;;
79687;SDS011;69155;49.464;2.108;2024-02-15T17:31:49;7.45;;;3.05;;
79687;SDS011;69155;49.464;2.108;2024-02-15T17:34:14;6.85;;;3.85;;
79687;SDS011;69155;49.464;2.108;2024-02-15T17:36:40;9.80;;;5.07;;
79687;SDS011;69155;49.464;2.108;2024-02-15T17:39:06;8.18;;;3.90;;
79687;SDS011;69155;49.464;2.108;2024-02-15T17:41:32;3.47;;;2.60;;
79687;SDS011;69155;49.464;2.108;2024-02-15T17:43:58;9.80;;;2.90;;
79687;SDS011;69155;49.464;2.108;2024-02-15T17:49:39;7.47;;;2.85;;
79687;SDS011;69155;49.464;2.108;2024-02-15T17:52:04;13.43;;;7.15;;
79687;SDS011;69155;49.464;2.108;2024-02-15T17:54:54;12.75;;;5.55;;
79687;SDS011;69155;49.464;2.108;2024-02-15T17:57:31;7.88;;;5.38;;
79687;SDS011;69155;49.464;2.108;2024-02-15T18:00:29;8.90;;;5.55;;
79687;SDS011;69155;49.464;2.108;2024-02-15T18:02:58;11.32;;;5.85;;
79687;SDS011;69155;49.464;2.108;2024-02-15T18:05:24;12.63;;;7.13;;
79687;SDS011;69155;49.464;2.108;2024-02-15T18:07:49;12.83;;;7.03;;
79687;SDS011;69155;49.464;2.108;2024-02-15T18:10:15;15.13;;;8.13;;
79687;SDS011;69155;49.464;2.108;2024-02-15T18:12:45;22.25;;;7.57;;
79687;SDS011;69155;49.464;2.108;2024-02-15T18:15:11;13.40;;;6.10;;
79687;SDS011;69155;49.464;2.108;2024-02-15T18:17:49;6.65;;;4.20;;
79687;SDS011;69155;49.464;2.108;2024-02-15T18:20:15;7.97;;;5.03;;
79687;SDS011;69155;49.464;2.108;2024-02-15T18:22:40;10.32;;;7.20;;
79687;SDS011;69155;49.464;2.108;2024-02-15T18:25:07;14.65;;;8.57;;
79687;SDS011;69155;49.464;2.108;2024-02-15T18:27:33;14.02;;;8.25;;
79687;SDS011;69155;49.464;2.108;2024-02-15T18:30:01;14.43;;;7.75;;
79687;SDS011;69155;49.464;2.108;2024-02-15T18:32:29;7.33;;;5.10;;
79687;SDS011;69155;49.464;2.108;2024-02-15T18:34:54;7.57;;;4.88;;
79687;SDS011;69155;49.464;2.108;2024-02-15T18:37:19;10.82;;;6.75;;
79687;SDS011;69155;49.464;2.108;2024-02-15T18:39:45;18.60;;;10.10;;
79687;SDS011;69155;49.464;2.108;2024-02-15T18:42:10;11.17;;;7.33;;
79687;SDS011;69155;49.464;2.108;2024-02-15T18:44:35;12.17;;;7.00;;
79687;SDS011;69155;49.464;2.108;2024-02-15T18:47:00;13.37;;;8.30;;
79687;SDS011;69155;49.464;2.108;2024-02-15T18:49:25;14.47;;;6.73;;
79687;SDS011;69155;49.464;2.108;2024-02-15T18:51:51;15.83;;;5.97;;
79687;SDS011;69155;49.464;2.108;2024-02-15T18:54:19;11.10;;;7.73;;
79687;SDS011;69155;49.464;2.108;2024-02-15T18:56:44;15.45;;;7.05;;
79687;SDS011;69155;49.464;2.108;2024-02-15T18:59:10;24.50;;;9.23;;
79687;SDS011;69155;49.464;2.108;2024-02-15T19:01:35;21.97;;;9.27;;
79687;SDS011;69155;49.464;2.108;2024-02-15T19:04:00;25.60;;;11.43;;
79687;SDS011;69155;49.464;2.108;2024-02-15T19:06:25;17.25;;;7.35;;
79687;SDS011;69155;49.464;2.108;2024-02-15T19:08:51;26.25;;;9.68;;
79687;SDS011;69155;49.464;2.108;2024-02-15T19:11:16;20.10;;;8.50;;
79687;SDS011;69155;49.464;2.108;2024-02-15T19:13:41;14.60;;;7.20;;
79687;SDS011;69155;49.464;2.108;2024-02-15T19:16:07;16.53;;;7.27;;
79687;SDS011;69155;49.464;2.108;2024-02-15T19:18:33;11.75;;;5.45;;
79687;SDS011;69155;49.464;2.108;2024-02-15T19:20:58;13.45;;;5.82;;
79687;SDS011;69155;49.464;2.108;2024-02-15T19:23:23;11.57;;;5.43;;
79687;SDS011;69155;49.464;2.108;2024-02-15T19:25:49;9.45;;;5.50;;
79687;SDS011;69155;49.464;2.108;2024-02-15T19:28:14;10.55;;;4.85;;
79687;SDS011;69155;49.464;2.108;2024-02-15T19:30:39;13.23;;;6.63;;
79687;SDS011;69155;49.464;2.108;2024-02-15T19:33:08;11.30;;;4.93;;
79687;SDS011;69155;49.464;2.108;2024-02-15T19:35:35;10.05;;;4.28;;
79687;SDS011;69155;49.464;2.108;2024-02-15T19:38:01;8.57;;;3.90;;
79687;SDS011;69155;49.464;2.108;2024-02-15T19:40:26;8.60;;;3.80;;
79687;SDS011;69155;49.464;2.108;2024-02-15T19:42:53;14.52;;;6.35;;
79687;SDS011;69155;49.464;2.108;2024-02-15T19:45:20;10.05;;;4.82;;
79687;SDS011;69155;49.464;2.108;2024-02-15T19:47:47;6.05;;;4.32;;
79687;SDS011;69155;49.464;2.108;2024-02-15T19:50:12;7.93;;;3.87;;
79687;SDS011;69155;49.464;2.108;2024-02-15T19:52:57;10.32;;;5.35;;
79687;SDS011;69155;49.464;2.108;2024-02-15T19:55:22;12.07;;;5.63;;
79687;SDS011;69155;49.464;2.108;2024-02-15T19:57:48;8.10;;;4.20;;
79687;SDS011;69155;49.464;2.108;2024-02-15T20:00:14;9.10;;;4.90;;
79687;SDS011;69155;49.464;2.108;2024-02-15T20:02:39;11.50;;;4.78;;
79687;SDS011;69155;49.464;2.108;2024-02-15T20:05:04;9.07;;;4.83;;
79687;SDS011;69155;49.464;2.108;2024-02-15T20:07:31;9.10;;;4.95;;
79687;SDS011;69155;49.464;2.108;2024-02-15T20:09:57;8.07;;;4.15;;
79687;SDS011;69155;49.464;2.108;2024-02-15T20:12:22;9.47;;;3.77;;
79687;SDS011;69155;49.464;2.108;2024-02-15T20:14:48;8.13;;;4.05;;
79687;SDS011;69155;49.464;2.108;2024-02-15T20:17:20;8.73;;;4.32;;
79687;SDS011;69155;49.464;2.108;2024-02-15T20:19:45;7.22;;;3.90;;
79687;SDS011;69155;49.464;2.108;2024-02-15T20:22:10;5.65;;;3.85;;
79687;SDS011;69155;49.464;2.108;2024-02-15T20:24:38;5.95;;;3.50;;
79687;SDS011;69155;49.464;2.108;2024-02-15T20:27:03;5.17;;;3.30;;
79687;SDS011;69155;49.464;2.108;2024-02-15T20:29:28;8.70;;;3.85;;
79687;SDS011;69155;49.464;2.108;2024-02-15T20:31:58;8.95;;;3.80;;
79687;SDS011;69155;49.464;2.108;2024-02-15T20:34:23;7.25;;;3.25;;
79687;SDS011;69155;49.464;2.108;2024-02-15T20:36:48;10.07;;;3.77;;
79687;SDS011;69155;49.464;2.108;2024-02-15T20:39:14;7.22;;;3.53;;
79687;SDS011;69155;49.464;2.108;2024-02-15T20:41:44;4.65;;;3.55;;
79687;SDS011;69155;49.464;2.108;2024-02-15T20:44:09;4.77;;;3.53;;
79687;SDS011;69155;49.464;2.108;2024-02-15T20:46:35;8.82;;;3.72;;
79687;SDS011;69155;49.464;2.108;2024-02-15T20:49:01;6.80;;;3.67;;
79687;SDS011;69155;49.464;2.108;2024-02-15T20:51:27;9.60;;;3.73;;
79687;SDS011;69155;49.464;2.108;2024-02-15T20:53:53;7.82;;;3.30;;
79687;SDS011;69155;49.464;2.108;2024-02-15T20:56:21;5.85;;;3.53;;
79687;SDS011;69155;49.464;2.108;2024-02-15T20:58:48;6.78;;;3.75;;
79687;SDS011;69155;49.464;2.108;2024-02-15T21:01:14;10.25;;;3.90;;
79687;SDS011;69155;49.464;2.108;2024-02-15T21:03:40;7.85;;;3.33;;
79687;SDS011;69155;49.464;2.108;2024-02-15T21:06:18;7.07;;;3.58;;
79687;SDS011;69155;49.464;2.108;2024-02-15T21:08:47;6.43;;;3.92;;
79687;SDS011;69155;49.464;2.108;2024-02-15T21:11:12;7.88;;;3.90;;
79687;SDS011;69155;49.464;2.108;2024-02-15T21:13:39;5.57;;;3.47;;
79687;SDS011;69155;49.464;2.108;2024-02-15T21:16:06;7.13;;;3.90;;
79687;SDS011;69155;49.464;2.108;2024-02-15T21:18:32;7.18;;;3.90;;
79687;SDS011;69155;49.464;2.108;2024-02-15T21:20:58;8.35;;;3.92;;
79687;SDS011;69155;49.464;2.108;2024-02-15T21:23:24;9.27;;;3.85;;
79687;SDS011;69155;49.464;2.108;2024-02-15T21:25:49;6.93;;;3.83;;
79687;SDS011;69155;49.464;2.108;2024-02-15T21:28:14;5.97;;;3.97;;
79687;SDS011;69155;49.464;2.108;2024-02-15T21:30:40;7.77;;;4.00;;
79687;SDS011;69155;49.464;2.108;2024-02-15T21:33:07;10.52;;;4.07;;
79687;SDS011;69155;49.464;2.108;2024-02-15T21:35:35;11.27;;;3.80;;
79687;SDS011;69155;49.464;2.108;2024-02-15T21:38:04;8.65;;;4.03;;
79687;SDS011;69155;49.464;2.108;2024-02-15T21:40:29;6.63;;;4.13;;
79687;SDS011;69155;49.464;2.108;2024-02-15T21:42:54;8.07;;;3.73;;
79687;SDS011;69155;49.464;2.108;2024-02-15T21:45:20;84.73;;;31.23;;
79687;SDS011;69155;49.464;2.108;2024-02-15T21:47:47;33.93;;;13.67;;
79687;SDS011;69155;49.464;2.108;2024-02-15T21:50:13;22.88;;;12.60;;
79687;SDS011;69155;49.464;2.108;2024-02-15T21:52:40;44.20;;;23.13;;
79687;SDS011;69155;49.464;2.108;2024-02-15T21:55:05;33.10;;;18.67;;
79687;SDS011;69155;49.464;2.108;2024-02-15T21:57:31;29.75;;;17.48;;
79687;SDS011;69155;49.464;2.108;2024-02-15T21:59:57;27.23;;;16.80;;
79687;SDS011;69155;49.464;2.108;2024-02-15T22:02:23;22.38;;;14.63;;
79687;SDS011;69155;49.464;2.108;2024-02-15T22:04:48;20.77;;;13.47;;
79687;SDS011;69155;49.464;2.108;2024-02-15T22:07:13;20.37;;;12.20;;
79687;SDS011;69155;49.464;2.108;2024-02-15T22:09:45;21.48;;;13.52;;
79687;SDS011;69155;49.464;2.108;2024-02-15T22:12:10;13.95;;;7.82;;
79687;SDS011;69155;49.464;2.108;2024-02-15T22:14:35;16.20;;;7.17;;
79687;SDS011;69155;49.464;2.108;2024-02-15T22:17:01;12.53;;;7.80;;
79687;SDS011;69155;49.464;2.108;2024-02-15T22:19:26;11.20;;;8.10;;
79687;SDS011;69155;49.464;2.108;2024-02-15T22:21:51;11.20;;;7.33;;
79687;SDS011;69155;49.464;2.108;2024-02-15T22:24:18;14.02;;;8.82;;
79687;SDS011;69155;49.464;2.108;2024-02-15T22:26:43;9.87;;;7.73;;
79687;SDS011;69155;49.464;2.108;2024-02-15T22:29:09;13.02;;;7.40;;
79687;SDS011;69155;49.464;2.108;2024-02-15T22:31:34;8.87;;;6.37;;
79687;SDS011;69155;49.464;2.108;2024-02-15T22:33:59;8.67;;;4.50;;
79687;SDS011;69155;49.464;2.108;2024-02-15T22:36:25;9.37;;;5.03;;
79687;SDS011;69155;49.464;2.108;2024-02-15T22:38:51;10.27;;;4.43;;
79687;SDS011;69155;49.464;2.108;2024-02-15T22:41:17;8.90;;;4.80;;
79687;SDS011;69155;49.464;2.108;2024-02-15T22:43:42;9.18;;;5.75;;
79687;SDS011;69155;49.464;2.108;2024-02-15T22:46:09;10.30;;;5.90;;
79687;SDS011;69155;49.464;2.108;2024-02-15T22:48:35;8.05;;;4.88;;
79687;SDS011;69155;49.464;2.108;2024-02-15T22:51:01;12.95;;;5.95;;
79687;SDS011;69155;49.464;2.108;2024-02-15T22:53:29;18.77;;;10.77;;
79687;SDS011;69155;49.464;2.108;2024-02-15T22:55:54;12.97;;;7.07;;
79687;SDS011;69155;49.464;2.108;2024-02-15T22:58:23;10.15;;;4.82;;
79687;SDS011;69155;49.464;2.108;2024-02-15T23:00:48;7.53;;;4.90;;